createdAt,value
2023-08-01T00:00:00.618Z,371
2023-08-01T00:10:00.588Z,323
2023-08-01T00:20:00.600Z,287
2023-08-01T00:30:00.579Z,287
2023-08-01T00:40:00.581Z,311
2023-08-01T00:50:00.578Z,306
2023-08-01T01:00:00.585Z,246
2023-08-01T01:10:00.609Z,277
2023-08-01T01:20:00.599Z,196
2023-08-01T01:30:00.588Z,285
2023-08-01T01:40:00.586Z,453
2023-08-01T01:50:00.579Z,479
2023-08-01T02:00:00.609Z,482
2023-08-01T02:10:00.596Z,479
2023-08-01T02:20:00.590Z,476
2023-08-01T02:30:00.571Z,469
2023-08-01T02:40:00.581Z,464
2023-08-01T02:50:00.660Z,450
2023-08-01T03:00:00.594Z,435
2023-08-01T03:10:00.573Z,414
2023-08-01T03:20:00.577Z,392
2023-08-01T03:30:00.590Z,391
2023-08-01T03:40:00.647Z,433
2023-08-01T03:50:00.587Z,430
2023-08-01T04:00:00.580Z,414
2023-08-01T04:10:00.573Z,406
2023-08-01T04:20:00.615Z,406
2023-08-01T04:30:00.585Z,390
2023-08-01T04:40:00.641Z,399
2023-08-01T04:50:00.594Z,403
2023-08-01T05:00:00.710Z,400
2023-08-01T05:10:00.582Z,391
2023-08-01T05:20:00.604Z,362
2023-08-01T05:30:00.570Z,340
2023-08-01T05:40:00.583Z,347
2023-08-01T05:50:00.602Z,279
2023-08-01T06:00:00.589Z,276
2023-08-01T06:10:00.582Z,303
2023-08-01T06:20:00.588Z,299
2023-08-01T06:30:00.576Z,285
2023-08-01T06:40:00.579Z,283
2023-08-01T06:50:00.620Z,262
2023-08-01T07:00:00.597Z,256
2023-08-01T07:10:00.601Z,278
2023-08-01T07:20:00.588Z,269
2023-08-01T07:30:00.633Z,274
2023-08-01T07:40:00.607Z,265
2023-08-01T07:50:00.626Z,251
2023-08-01T08:00:00.600Z,274
2023-08-01T08:10:00.617Z,263
2023-08-01T08:20:00.588Z,202
2023-08-01T08:30:00.745Z,182
2023-08-01T08:40:00.592Z,194
2023-08-01T08:50:00.593Z,210
2023-08-01T09:00:00.579Z,188
2023-08-01T09:10:00.591Z,168
2023-08-01T09:20:00.585Z,183
2023-08-01T09:30:00.588Z,154
2023-08-01T09:40:00.570Z,138
2023-08-01T09:50:00.512Z,134
2023-08-01T10:00:00.484Z,139
2023-08-01T10:20:00.383Z,140
2023-08-01T10:30:00.508Z,148
2023-08-01T10:40:00.416Z,129
2023-08-01T10:50:00.687Z,110
2023-08-01T11:00:02.010Z,78
2023-08-01T11:20:00.335Z,59
2023-08-01T11:30:00.284Z,68
2023-08-01T11:40:00.218Z,58
2023-08-01T11:50:00.370Z,69
2023-08-01T12:00:00.345Z,92
2023-08-01T12:10:00.390Z,61
2023-08-01T12:20:00.338Z,53
2023-08-01T12:30:00.345Z,54
2023-08-01T12:40:00.330Z,51
2023-08-01T12:50:00.508Z,48
2023-08-01T13:00:00.477Z,42
2023-08-01T13:10:00.503Z,72
2023-08-01T13:20:00.461Z,104
2023-08-01T13:30:00.499Z,116
2023-08-01T13:40:00.454Z,137
2023-08-01T13:50:00.511Z,82
2023-08-01T14:00:12.131Z,60
2023-08-01T14:10:00.575Z,53
2023-08-01T14:20:00.567Z,61
2023-08-01T14:30:00.493Z,41
2023-08-01T14:40:00.504Z,116
2023-08-01T14:50:00.494Z,69
2023-08-01T15:00:00.493Z,99
2023-08-01T15:10:00.499Z,63
2023-08-01T15:20:00.543Z,66
2023-08-01T15:30:00.741Z,280
2023-08-01T15:40:00.474Z,146
2023-08-01T15:50:00.482Z,222
2023-08-01T16:00:00.476Z,359
2023-08-01T16:10:00.558Z,45
2023-08-01T16:20:00.512Z,18
2023-08-01T16:30:00.481Z,117
2023-08-01T16:40:00.579Z,19
2023-08-01T16:50:00.487Z,6
2023-08-01T17:00:00.480Z,5
2023-08-01T17:10:00.472Z,5
2023-08-01T17:20:00.475Z,3
2023-08-01T17:30:00.505Z,3
2023-08-01T17:40:00.469Z,3
2023-08-01T17:50:00.473Z,3
2023-08-01T18:00:00.496Z,4
2023-08-01T18:10:02.482Z,4
2023-08-01T18:20:00.505Z,4
2023-08-01T18:30:00.534Z,5
2023-08-01T18:40:00.496Z,6
2023-08-01T18:50:00.493Z,14
2023-08-01T19:00:00.493Z,14
2023-08-01T19:10:00.482Z,39
2023-08-01T19:20:00.621Z,15
2023-08-01T19:30:00.466Z,42
2023-08-01T19:40:00.510Z,85
2023-08-01T19:50:00.487Z,48
2023-08-01T20:00:00.462Z,57
2023-08-01T20:10:00.494Z,69
2023-08-01T20:20:00.518Z,63
2023-08-01T20:30:00.561Z,127
2023-08-01T20:40:00.564Z,156
2023-08-01T20:50:00.465Z,146
2023-08-01T21:00:00.482Z,67
2023-08-01T21:10:00.491Z,78
2023-08-01T21:20:00.501Z,68
2023-08-01T21:30:00.490Z,40
2023-08-01T21:40:00.540Z,80
2023-08-01T21:50:00.496Z,37
2023-08-01T22:00:00.485Z,32
2023-08-01T22:10:00.509Z,32
2023-08-01T22:20:00.521Z,60
2023-08-01T22:30:00.526Z,47
2023-08-01T22:40:00.526Z,49
2023-08-01T22:50:06.342Z,135
2023-08-01T23:00:00.495Z,82
2023-08-01T23:10:00.498Z,79
2023-08-01T23:20:00.523Z,58
2023-08-01T23:30:00.466Z,62
2023-08-01T23:40:00.529Z,61
2023-08-01T23:50:00.468Z,54
